Terminal Aerodrome Forecast
Issued by NWS

Home | Current Version | Previous Version | Text Only | Print | Product List | Glossary On
Versions: 1 2 3 4 5 6 7 8 9 10 11 12 13
000
FTUS42 TJSJ 301738
TAFNCM
TAF
TNCM 301738Z 3018/3118 11009KT P6SM FEW025=

USA.gov is the U.S. government's official web portal to all federal, state and local government web resources and services.